UBBB/BAK METAR and TAF weather

Enter ICAO airport designator
Station Type Date Time Source
UBBB METAR 2018/12/19 10:00 UTC NOAA

UBBB 191000Z 10006KT 9999 OVC023 07/03 Q1029 R88/290055 NOSIG


Station Type Date Time Source
UBBB Decoded METAR 2018/12/19 10:00 UTC NOAA

Baku / Bine Airport, Azerbaijan (UBBB) 40-27N 050-04E -1M
Dec 19, 2018 - 05:00 AM EST / 2018.12.19 1000 UTC
Wind: from the E (100 degrees) at 7 MPH (6 KT):0
Visibility: greater than 7 mile(s):0
Sky conditions: overcast
Temperature: 44 F (7 C)
Dew Point: 37 F (3 C)
Relative Humidity: 75%
Pressure (altimeter): 30.39 in. Hg (1029 hPa)
ob: UBBB 191000Z 10006KT 9999 OVC023 07/03 Q1029 R88/290055 NOSIG
cycle: 10

Station Type Date Time Source
UBBB TAF 2018/12/19 06:10 UTC NOAA

TAF UBBB 190507Z 1906/2006 06006KT 9999 OVC025 TX07/1910Z TN05/2003Z
TEMPO 1906/1912 09010KT -RA SCT010 OVC020
BECMG 1912/1914 12008KT
TEMPO 1916/2006 14012KT 4000 -RA BKN004 OVC017


Example: see airport list